createdAt,value
2018-08-24T00:00:22.502Z,9.67
2018-08-24T00:02:50.758Z,10.03
2018-08-24T00:05:19.323Z,9.67
2018-08-24T00:07:48.309Z,10.57
2018-08-24T00:10:16.772Z,9.20
2018-08-24T00:12:45.241Z,10.10
2018-08-24T00:15:13.734Z,10.00
2018-08-24T00:17:46.417Z,10.37
2018-08-24T00:20:14.803Z,10.20
2018-08-24T00:22:43.377Z,9.97
2018-08-24T00:25:11.969Z,10.50
2018-08-24T00:27:40.511Z,11.10
2018-08-24T00:30:09.085Z,10.43
2018-08-24T00:32:37.617Z,10.50
2018-08-24T00:35:05.987Z,10.20
2018-08-24T00:37:34.603Z,10.03
2018-08-24T00:40:03.533Z,10.70
2018-08-24T00:42:32.012Z,10.33
2018-08-24T00:45:00.653Z,11.07
2018-08-24T00:47:29.441Z,11.23
2018-08-24T00:49:58.031Z,11.33
2018-08-24T00:52:26.604Z,11.20
2018-08-24T00:54:54.901Z,11.43
2018-08-24T00:57:23.484Z,10.60
2018-08-24T00:59:51.950Z,10.67
2018-08-24T01:02:20.845Z,10.50
2018-08-24T01:04:49.446Z,11.40
2018-08-24T01:07:18.201Z,11.43
2018-08-24T01:09:46.787Z,10.47
2018-08-24T01:12:16.412Z,11.40
2018-08-24T01:14:46.018Z,11.03
2018-08-24T01:17:20.003Z,11.03
2018-08-24T01:19:48.628Z,10.23
2018-08-24T01:22:17.333Z,10.97
2018-08-24T01:24:45.774Z,10.97
2018-08-24T01:27:14.465Z,10.43
2018-08-24T01:29:43.289Z,10.37
2018-08-24T01:32:13.778Z,11.33
2018-08-24T01:34:42.410Z,11.00
2018-08-24T01:37:11.154Z,11.20
2018-08-24T01:39:39.405Z,10.77
2018-08-24T01:42:08.350Z,10.43
2018-08-24T01:44:37.012Z,11.33
2018-08-24T01:47:05.517Z,11.70
2018-08-24T01:49:34.278Z,10.83
2018-08-24T01:52:02.783Z,11.43
2018-08-24T01:54:31.236Z,11.03
2018-08-24T01:56:59.717Z,10.60
2018-08-24T01:59:28.220Z,11.37
2018-08-24T02:01:56.888Z,10.87
2018-08-24T02:04:26.076Z,11.97
2018-08-24T02:06:54.480Z,9.87
2018-08-24T02:09:23.588Z,10.97
2018-08-24T02:11:52.096Z,11.60
2018-08-24T02:14:26.020Z,11.00
2018-08-24T02:16:54.545Z,11.17
2018-08-24T02:19:28.557Z,12.17
2018-08-24T02:22:02.672Z,11.67
2018-08-24T02:24:31.260Z,10.40
2018-08-24T02:26:59.928Z,11.97
2018-08-24T02:29:28.616Z,10.37
2018-08-24T02:31:57.426Z,10.63
2018-08-24T02:34:26.011Z,11.30
2018-08-24T02:36:54.691Z,11.60
2018-08-24T02:39:23.377Z,11.53
2018-08-24T02:41:52.064Z,11.50
2018-08-24T02:44:20.608Z,11.67
2018-08-24T02:46:49.204Z,10.57
2018-08-24T02:49:17.898Z,11.53
2018-08-24T02:51:46.484Z,11.67
2018-08-24T02:54:14.934Z,11.57
2018-08-24T02:56:43.548Z,11.30
2018-08-24T02:59:12.252Z,11.03
2018-08-24T03:01:40.762Z,12.77
2018-08-24T03:04:09.291Z,11.77
2018-08-24T03:06:37.708Z,12.13
2018-08-24T03:09:08.917Z,11.80
2018-08-24T03:11:37.506Z,11.33
2018-08-24T03:14:05.977Z,11.77
2018-08-24T03:16:34.592Z,10.97
2018-08-24T03:19:03.459Z,12.00
2018-08-24T03:21:31.673Z,11.47
2018-08-24T03:23:59.933Z,11.20
2018-08-24T03:26:28.823Z,11.57
2018-08-24T03:28:57.512Z,11.47
2018-08-24T03:31:25.997Z,12.80
2018-08-24T03:33:54.679Z,11.63
2018-08-24T03:36:23.371Z,12.00
2018-08-24T03:38:51.824Z,12.47
2018-08-24T03:41:20.238Z,11.23
2018-08-24T03:43:48.891Z,12.00
2018-08-24T03:46:17.488Z,12.33
2018-08-24T03:48:45.968Z,11.77
2018-08-24T03:51:14.676Z,11.93
2018-08-24T03:53:43.285Z,12.40
2018-08-24T03:56:11.624Z,11.90
2018-08-24T03:58:40.106Z,11.93
2018-08-24T04:01:08.790Z,11.63
2018-08-24T04:03:37.591Z,12.27
2018-08-24T04:06:06.448Z,12.50
2018-08-24T04:08:35.091Z,12.57
2018-08-24T04:11:03.525Z,12.80
2018-08-24T04:13:32.245Z,10.93
2018-08-24T04:16:00.812Z,12.10
2018-08-24T04:18:29.279Z,11.67
2018-08-24T04:20:57.879Z,12.13
2018-08-24T04:23:26.476Z,12.53
2018-08-24T04:25:55.139Z,12.53
2018-08-24T04:28:23.641Z,11.67
2018-08-24T04:30:52.110Z,12.40
2018-08-24T04:33:20.719Z,12.23
2018-08-24T04:35:49.154Z,12.07
2018-08-24T04:38:17.659Z,12.33
2018-08-24T04:40:46.145Z,12.57
2018-08-24T04:43:14.922Z,12.57
2018-08-24T04:45:43.401Z,12.23
2018-08-24T04:48:11.878Z,11.70
2018-08-24T04:50:40.584Z,12.57
2018-08-24T04:53:09.571Z,12.00
2018-08-24T04:55:38.091Z,12.40
2018-08-24T04:58:07.172Z,11.53
2018-08-24T05:00:35.637Z,12.43
2018-08-24T05:03:04.114Z,12.60
2018-08-24T05:05:32.755Z,11.23
2018-08-24T05:08:01.179Z,12.43
2018-08-24T05:10:30.088Z,12.47
2018-08-24T05:12:58.745Z,12.73
2018-08-24T05:15:27.119Z,14.23
2018-08-24T05:17:55.596Z,12.43
2018-08-24T05:20:24.100Z,13.90
2018-08-24T05:22:52.675Z,13.33
2018-08-24T05:25:21.959Z,14.07
2018-08-24T05:27:50.289Z,13.37
2018-08-24T05:30:18.837Z,12.60
2018-08-24T05:32:47.704Z,12.83
2018-08-24T05:35:16.244Z,12.07
2018-08-24T05:37:44.889Z,13.97
2018-08-24T05:40:13.395Z,12.47
2018-08-24T05:42:41.857Z,12.47
2018-08-24T05:45:10.418Z,12.30
2018-08-24T05:47:38.836Z,12.03
2018-08-24T05:50:07.544Z,12.67
2018-08-24T05:52:36.197Z,12.30
2018-08-24T05:55:04.715Z,11.37
2018-08-24T05:57:33.109Z,11.67
2018-08-24T06:00:01.634Z,12.23
2018-08-24T06:02:30.388Z,11.50
2018-08-24T06:04:58.834Z,12.03
2018-08-24T06:07:27.398Z,11.13
2018-08-24T06:09:56.750Z,11.97
2018-08-24T06:12:25.624Z,11.17
2018-08-24T06:14:54.173Z,11.73
2018-08-24T06:17:27.906Z,11.50
2018-08-24T06:19:56.365Z,11.27
2018-08-24T06:22:24.939Z,11.10
2018-08-24T06:24:53.476Z,11.70
2018-08-24T06:27:22.233Z,11.10
2018-08-24T06:29:50.713Z,11.43
2018-08-24T06:32:19.484Z,10.43
2018-08-24T06:34:47.979Z,10.20
2018-08-24T06:37:16.436Z,11.50
2018-08-24T06:39:44.932Z,9.43
2018-08-24T06:42:13.568Z,11.00
2018-08-24T06:44:42.006Z,9.83
2018-08-24T06:47:10.697Z,10.30
2018-08-24T06:49:39.489Z,10.07
2018-08-24T06:52:08.246Z,9.53
2018-08-24T06:54:37.031Z,9.83
2018-08-24T06:57:05.531Z,9.77
2018-08-24T06:59:34.003Z,9.67
2018-08-24T07:02:02.779Z,9.23
2018-08-24T07:04:31.389Z,9.43
2018-08-24T07:06:59.848Z,9.40
2018-08-24T07:09:28.352Z,9.47
2018-08-24T07:11:56.666Z,10.50
2018-08-24T07:14:25.337Z,8.83
2018-08-24T07:16:58.408Z,10.07
2018-08-24T07:19:27.092Z,9.70
2018-08-24T07:21:55.964Z,9.60
2018-08-24T07:24:25.010Z,10.20
2018-08-24T07:26:53.377Z,9.67
2018-08-24T07:29:21.786Z,9.30
2018-08-24T07:31:50.586Z,9.47
2018-08-24T07:34:19.196Z,10.10
2018-08-24T07:36:47.745Z,10.40
2018-08-24T07:39:16.476Z,10.55
2018-08-24T07:41:44.919Z,9.88
2018-08-24T07:44:13.566Z,10.63
2018-08-24T07:46:42.135Z,11.10
2018-08-24T07:49:10.664Z,10.70
2018-08-24T07:51:39.510Z,11.43
2018-08-24T07:54:07.967Z,10.90
2018-08-24T07:56:36.559Z,10.85
2018-08-24T07:59:04.962Z,11.60
2018-08-24T08:01:33.527Z,10.20
2018-08-24T08:04:03.231Z,11.83
2018-08-24T08:06:31.650Z,11.08
2018-08-24T08:09:00.235Z,11.90
2018-08-24T08:11:35.320Z,11.35
2018-08-24T08:14:03.930Z,10.25
2018-08-24T08:16:32.708Z,10.90
2018-08-24T08:19:01.207Z,11.57
2018-08-24T08:21:30.146Z,10.43
2018-08-24T08:23:58.799Z,10.78
2018-08-24T08:26:27.377Z,11.70
2018-08-24T08:28:56.074Z,12.03
2018-08-24T08:31:24.746Z,11.00
2018-08-24T08:33:53.318Z,10.08
2018-08-24T08:36:21.840Z,12.55
2018-08-24T08:38:50.211Z,12.55
2018-08-24T08:41:18.974Z,10.40
2018-08-24T08:43:47.642Z,11.53
2018-08-24T08:46:16.338Z,12.13
2018-08-24T08:48:44.837Z,11.68
2018-08-24T08:51:13.321Z,11.40
2018-08-24T08:53:41.812Z,11.38
2018-08-24T08:56:10.373Z,12.63
2018-08-24T08:58:39.026Z,10.98
2018-08-24T09:01:07.425Z,12.33
2018-08-24T09:03:35.915Z,12.40
2018-08-24T09:06:04.467Z,12.40
2018-08-24T09:08:33.313Z,11.88
2018-08-24T09:11:02.899Z,10.40
2018-08-24T09:13:31.310Z,11.22
2018-08-24T09:16:00.173Z,12.55
2018-08-24T09:18:34.143Z,11.70
2018-08-24T09:21:07.947Z,11.15
2018-08-24T09:23:42.666Z,11.28
2018-08-24T09:26:16.709Z,9.85
2018-08-24T09:28:45.321Z,10.95
2018-08-24T09:31:18.123Z,10.20
2018-08-24T09:33:46.667Z,11.53
2018-08-24T09:36:18.126Z,10.68
2018-08-24T09:38:47.518Z,10.90
2018-08-24T09:41:16.016Z,10.25
2018-08-24T09:43:50.063Z,9.80
2018-08-24T09:46:18.903Z,9.68
2018-08-24T09:48:52.625Z,10.60
2018-08-24T09:51:25.947Z,11.12
2018-08-24T09:53:59.769Z,10.88
2018-08-24T09:56:29.701Z,9.55
2018-08-24T09:58:58.873Z,9.80
2018-08-24T10:01:33.248Z,9.43
2018-08-24T10:04:07.299Z,10.03
2018-08-24T10:06:41.425Z,10.10
2018-08-24T10:09:11.036Z,10.50
2018-08-24T10:11:39.465Z,10.10
2018-08-24T10:14:08.297Z,9.90
2018-08-24T10:16:37.133Z,10.48
2018-08-24T10:19:05.613Z,9.65
2018-08-24T10:21:33.801Z,9.43
2018-08-24T10:24:02.482Z,9.00
2018-08-24T10:26:30.989Z,9.93
2018-08-24T10:28:59.236Z,10.35
2018-08-24T10:31:27.627Z,10.70
2018-08-24T10:33:56.250Z,9.88
2018-08-24T10:36:24.913Z,9.78
2018-08-24T10:38:53.425Z,9.95
2018-08-24T10:41:21.977Z,9.50
2018-08-24T10:43:50.668Z,9.30
2018-08-24T10:46:19.264Z,10.23
2018-08-24T10:48:47.896Z,10.10
2018-08-24T10:51:16.693Z,10.18
2018-08-24T10:53:46.026Z,10.20
2018-08-24T10:56:14.920Z,10.13
2018-08-24T10:58:44.200Z,10.10
2018-08-24T11:01:12.580Z,11.03
2018-08-24T11:03:40.854Z,9.70
2018-08-24T11:06:09.747Z,9.35
2018-08-24T11:08:38.029Z,9.50
2018-08-24T11:11:06.703Z,9.43
2018-08-24T11:13:35.075Z,10.63
2018-08-24T11:16:03.667Z,9.88
2018-08-24T11:18:32.195Z,10.32
2018-08-24T11:21:00.546Z,10.00
2018-08-24T11:23:29.382Z,11.12
2018-08-24T11:25:58.214Z,10.35
2018-08-24T11:28:26.914Z,10.35
2018-08-24T11:30:55.792Z,10.60
2018-08-24T11:33:24.497Z,9.43
2018-08-24T11:35:53.254Z,8.40
2018-08-24T11:38:21.676Z,8.35
2018-08-24T11:40:50.413Z,8.23
2018-08-24T11:43:19.158Z,7.97
2018-08-24T11:45:47.931Z,8.08
2018-08-24T11:48:17.308Z,8.03
2018-08-24T11:50:45.713Z,8.45
2018-08-24T11:53:14.445Z,7.97
2018-08-24T11:55:42.898Z,8.85
2018-08-24T11:58:11.564Z,8.65
2018-08-24T12:00:40.867Z,8.98
2018-08-24T12:03:09.449Z,8.83
2018-08-24T12:05:37.912Z,7.80
2018-08-24T12:08:06.665Z,8.33
2018-08-24T12:10:35.128Z,8.33
2018-08-24T12:13:03.993Z,7.37
2018-08-24T12:15:32.651Z,7.90
2018-08-24T12:18:01.361Z,8.47
2018-08-24T12:20:29.511Z,7.50
2018-08-24T12:22:58.147Z,7.87
2018-08-24T12:25:26.843Z,8.00
2018-08-24T12:27:55.388Z,8.50
2018-08-24T12:30:24.075Z,8.07
2018-08-24T12:32:52.648Z,8.03
2018-08-24T12:35:21.260Z,8.17
2018-08-24T12:37:50.233Z,8.43
2018-08-24T12:40:18.875Z,7.93
2018-08-24T12:42:47.410Z,8.70
2018-08-24T12:45:16.049Z,8.17
2018-08-24T12:47:44.467Z,8.40
2018-08-24T12:50:13.165Z,8.43
2018-08-24T12:52:42.152Z,8.47
2018-08-24T12:55:10.566Z,8.20
2018-08-24T12:57:39.128Z,7.53
2018-08-24T13:00:07.711Z,7.77
2018-08-24T13:02:36.190Z,8.77
2018-08-24T13:05:04.884Z,8.10
2018-08-24T13:07:33.616Z,8.30
2018-08-24T13:10:02.484Z,7.80
2018-08-24T13:12:31.225Z,7.60
2018-08-24T13:14:59.823Z,7.43
2018-08-24T13:17:28.320Z,8.43
2018-08-24T13:19:56.838Z,7.17
2018-08-24T13:22:25.497Z,7.35
2018-08-24T13:24:53.777Z,7.80
2018-08-24T13:27:22.289Z,7.50
2018-08-24T13:29:51.544Z,7.30
2018-08-24T13:32:20.045Z,8.10
2018-08-24T13:34:48.498Z,7.92
2018-08-24T13:37:17.125Z,8.60
2018-08-24T13:39:45.648Z,7.30
2018-08-24T13:42:14.166Z,8.43
2018-08-24T13:44:42.905Z,7.00
2018-08-24T13:47:11.421Z,8.43
2018-08-24T13:49:39.980Z,7.43
2018-08-24T13:52:08.727Z,8.03
2018-08-24T13:54:37.299Z,7.97
2018-08-24T13:57:05.873Z,7.87
2018-08-24T13:59:34.762Z,8.03
2018-08-24T14:02:03.044Z,7.87
2018-08-24T14:04:31.402Z,6.50
2018-08-24T14:07:00.092Z,6.90
2018-08-24T14:09:28.671Z,6.50
2018-08-24T14:11:57.150Z,7.17
2018-08-24T14:14:25.965Z,7.23
2018-08-24T14:16:54.306Z,8.00
2018-08-24T14:19:23.136Z,8.03
2018-08-24T14:21:51.740Z,7.33
2018-08-24T14:24:20.061Z,8.07
2018-08-24T14:26:48.665Z,8.37
2018-08-24T14:29:17.206Z,8.13
2018-08-24T14:31:45.838Z,8.80
2018-08-24T14:34:14.397Z,6.63
2018-08-24T14:36:42.866Z,7.13
2018-08-24T14:39:11.798Z,7.20
2018-08-24T14:41:40.257Z,7.30
2018-08-24T14:44:08.977Z,7.00
2018-08-24T14:46:37.777Z,6.67
2018-08-24T14:49:06.729Z,7.47
2018-08-24T14:51:35.147Z,7.33
2018-08-24T14:54:03.750Z,7.60
2018-08-24T14:56:32.373Z,8.03
2018-08-24T14:59:01.045Z,8.73
2018-08-24T15:01:29.264Z,9.37
2018-08-24T15:03:57.712Z,8.93
2018-08-24T15:06:26.426Z,8.27
2018-08-24T15:08:55.170Z,9.57
2018-08-24T15:11:23.797Z,8.90
2018-08-24T15:13:52.300Z,8.53
2018-08-24T15:16:20.754Z,8.83
2018-08-24T15:18:49.025Z,9.30
2018-08-24T15:21:17.400Z,8.70
2018-08-24T15:23:45.776Z,9.47
2018-08-24T15:26:14.495Z,8.57
2018-08-24T15:28:43.108Z,9.03
2018-08-24T15:31:11.461Z,8.43
2018-08-24T15:33:39.904Z,8.60
2018-08-24T15:36:08.593Z,8.40
2018-08-24T15:38:37.380Z,9.20
2018-08-24T15:41:05.803Z,10.20
2018-08-24T15:43:34.447Z,8.70
2018-08-24T15:46:03.358Z,9.30
2018-08-24T15:48:31.875Z,10.03
2018-08-24T15:51:00.511Z,9.13
2018-08-24T15:53:28.981Z,9.67
2018-08-24T15:55:57.494Z,10.07
2018-08-24T15:58:25.762Z,9.60
2018-08-24T16:00:54.224Z,10.47
2018-08-24T16:03:22.933Z,10.63
2018-08-24T16:05:51.458Z,10.40
2018-08-24T16:08:20.166Z,9.90
2018-08-24T16:10:48.544Z,8.73
2018-08-24T16:13:17.160Z,10.30
2018-08-24T16:15:45.928Z,9.90
2018-08-24T16:18:19.965Z,9.73
2018-08-24T16:20:48.654Z,9.73
2018-08-24T16:23:16.894Z,9.63
2018-08-24T16:25:45.328Z,9.70
2018-08-24T16:28:13.881Z,9.97
2018-08-24T16:30:42.155Z,9.13
2018-08-24T16:33:10.696Z,8.87
2018-08-24T16:35:39.107Z,9.13
2018-08-24T16:38:07.496Z,8.97
2018-08-24T16:40:35.894Z,8.73
2018-08-24T16:43:04.351Z,9.40
2018-08-24T16:45:32.811Z,9.43
2018-08-24T16:48:01.431Z,8.73
2018-08-24T16:50:29.829Z,7.93
2018-08-24T16:52:58.388Z,7.87
2018-08-24T16:55:26.784Z,8.60
2018-08-24T16:57:55.544Z,9.50
2018-08-24T17:00:24.147Z,8.93
2018-08-24T17:02:52.987Z,8.30
2018-08-24T17:05:21.658Z,8.63
2018-08-24T17:07:50.002Z,8.30
2018-08-24T17:10:18.296Z,8.47
2018-08-24T17:12:46.695Z,8.87
2018-08-24T17:15:16.219Z,9.13
2018-08-24T17:17:44.943Z,8.80
2018-08-24T17:20:13.664Z,8.70
2018-08-24T17:22:42.116Z,8.53
2018-08-24T17:25:11.249Z,9.13
2018-08-24T17:27:39.714Z,8.37
2018-08-24T17:30:08.212Z,8.37
2018-08-24T17:32:36.772Z,8.03
2018-08-24T17:35:06.162Z,7.87
2018-08-24T17:37:34.933Z,9.20
2018-08-24T17:40:03.312Z,7.20
2018-08-24T17:42:31.970Z,7.40
2018-08-24T17:45:00.288Z,8.80
2018-08-24T17:47:29.559Z,8.07
2018-08-24T17:49:58.129Z,8.57
2018-08-24T17:52:26.556Z,8.47
2018-08-24T17:54:55.278Z,9.07
2018-08-24T17:57:23.732Z,8.13
2018-08-24T17:59:52.748Z,7.90
2018-08-24T18:02:21.627Z,9.40
2018-08-24T18:04:50.307Z,9.13
2018-08-24T18:07:18.925Z,9.00
2018-08-24T18:09:47.609Z,9.03
2018-08-24T18:12:15.842Z,8.20
2018-08-24T18:14:44.280Z,8.60
2018-08-24T18:17:13.106Z,8.67
2018-08-24T18:19:41.901Z,9.03
2018-08-24T18:22:10.498Z,8.37
2018-08-24T18:24:39.300Z,8.80
2018-08-24T18:27:07.841Z,8.77
2018-08-24T18:29:36.944Z,8.57
2018-08-24T18:32:05.636Z,7.57
2018-08-24T18:34:33.806Z,8.33
2018-08-24T18:37:02.534Z,7.37
2018-08-24T18:39:31.422Z,7.90
2018-08-24T18:42:00.097Z,8.23
2018-08-24T18:44:28.815Z,7.27
2018-08-24T18:46:57.140Z,8.17
2018-08-24T18:49:25.512Z,8.93
2018-08-24T18:51:54.025Z,8.57
2018-08-24T18:54:22.497Z,9.37
2018-08-24T18:56:51.220Z,8.47
2018-08-24T18:59:19.574Z,9.33
2018-08-24T19:01:49.257Z,9.83
2018-08-24T19:04:17.945Z,9.83
2018-08-24T19:06:46.127Z,9.67
2018-08-24T19:09:14.698Z,9.67
2018-08-24T19:11:48.742Z,8.97
2018-08-24T19:14:17.297Z,9.67
2018-08-24T19:16:46.037Z,8.43
2018-08-24T19:19:19.961Z,9.57
2018-08-24T19:21:49.216Z,8.33
2018-08-24T19:24:17.378Z,8.60
2018-08-24T19:26:46.068Z,7.30
2018-08-24T19:31:23.191Z,8.17
2018-08-24T19:33:51.892Z,9.07
2018-08-24T19:36:20.574Z,9.30
2018-08-24T19:38:49.021Z,8.90
2018-08-24T19:41:23.109Z,8.10
2018-08-24T19:43:51.537Z,8.93
2018-08-24T19:46:19.785Z,8.93
2018-08-24T19:48:53.848Z,9.23
2018-08-24T19:51:22.584Z,9.20
2018-08-24T19:53:51.096Z,9.20
2018-08-24T19:56:19.649Z,8.97
2018-08-24T19:58:54.562Z,8.67
2018-08-24T20:01:23.615Z,9.20
2018-08-24T20:03:52.073Z,10.07
2018-08-24T20:06:25.855Z,7.70
2018-08-24T20:08:59.497Z,8.47
2018-08-24T20:11:28.213Z,9.33
2018-08-24T20:13:56.823Z,8.90
2018-08-24T20:16:31.201Z,8.50
2018-08-24T20:19:00.171Z,9.23
2018-08-24T20:21:28.834Z,8.57
2018-08-24T20:23:57.429Z,9.30
2018-08-24T20:26:26.347Z,8.77
2018-08-24T20:28:54.921Z,8.50
2018-08-24T20:31:23.601Z,8.50
2018-08-24T20:33:51.903Z,8.37
2018-08-24T20:36:20.364Z,7.87
2018-08-24T20:38:48.856Z,8.80
2018-08-24T20:41:17.745Z,7.83
2018-08-24T20:43:46.724Z,7.13
2018-08-24T20:46:15.292Z,7.77
2018-08-24T20:48:43.977Z,8.33
2018-08-24T20:51:12.450Z,9.10
2018-08-24T20:53:41.148Z,8.77
2018-08-24T20:56:09.569Z,8.93
2018-08-24T20:58:38.333Z,8.80
2018-08-24T21:01:06.821Z,7.50
2018-08-24T21:03:35.364Z,8.83
2018-08-24T21:06:03.968Z,8.00
2018-08-24T21:08:32.488Z,9.17
2018-08-24T21:11:01.251Z,7.80
2018-08-24T21:13:29.721Z,7.90
2018-08-24T21:15:58.110Z,7.87
2018-08-24T21:18:26.776Z,7.87
2018-08-24T21:20:55.585Z,7.37
2018-08-24T21:23:27.308Z,8.17
2018-08-24T21:25:55.699Z,8.53
2018-08-24T21:28:24.224Z,8.47
2018-08-24T21:30:52.826Z,9.47
2018-08-24T21:33:21.643Z,9.77
2018-08-24T21:35:50.274Z,8.53
2018-08-24T21:38:18.760Z,10.23
2018-08-24T21:40:47.644Z,8.40
2018-08-24T21:43:16.099Z,8.03
2018-08-24T21:45:44.804Z,8.20
2018-08-24T21:48:13.064Z,7.47
2018-08-24T21:50:41.553Z,8.23
2018-08-24T21:53:10.033Z,8.10
2018-08-24T21:55:38.748Z,8.53
2018-08-24T21:58:07.160Z,8.07
2018-08-24T22:00:41.737Z,8.20
2018-08-24T22:03:11.516Z,8.83
2018-08-24T22:05:40.527Z,7.87
2018-08-24T22:08:09.021Z,8.87
2018-08-24T22:10:37.466Z,8.13
2018-08-24T22:13:05.913Z,7.47
2018-08-24T22:15:34.687Z,8.47
2018-08-24T22:18:03.522Z,7.77
2018-08-24T22:20:31.760Z,7.70
2018-08-24T22:23:00.213Z,8.10
2018-08-24T22:25:28.688Z,7.13
2018-08-24T22:27:57.057Z,7.23
2018-08-24T22:30:25.707Z,8.07
2018-08-24T22:32:54.298Z,8.20
2018-08-24T22:35:22.804Z,7.57
2018-08-24T22:37:51.390Z,7.10
2018-08-24T22:40:19.821Z,6.50
2018-08-24T22:42:48.156Z,6.57
2018-08-24T22:45:16.516Z,6.43
2018-08-24T22:47:45.411Z,6.07
2018-08-24T22:50:14.108Z,5.23
2018-08-24T22:52:42.598Z,4.47
2018-08-24T22:55:11.072Z,5.10
2018-08-24T22:57:39.883Z,4.93
2018-08-24T23:00:08.309Z,4.43
2018-08-24T23:02:36.548Z,4.10
2018-08-24T23:05:05.129Z,4.23
2018-08-24T23:07:33.689Z,4.47
2018-08-24T23:10:02.057Z,6.10
2018-08-24T23:12:30.625Z,6.40
2018-08-24T23:14:59.650Z,5.67
2018-08-24T23:17:28.036Z,5.93
2018-08-24T23:19:56.702Z,6.00
2018-08-24T23:22:25.221Z,5.60
2018-08-24T23:24:53.776Z,5.23
2018-08-24T23:27:22.267Z,5.17
2018-08-24T23:29:50.731Z,5.43
2018-08-24T23:32:19.330Z,3.97
2018-08-24T23:34:47.819Z,4.87
2018-08-24T23:37:16.604Z,5.20
2018-08-24T23:39:45.278Z,4.80
2018-08-24T23:42:13.891Z,4.73
2018-08-24T23:44:42.664Z,4.43
2018-08-24T23:47:11.141Z,5.00
2018-08-24T23:49:39.624Z,4.90
2018-08-24T23:52:08.226Z,5.00
2018-08-24T23:54:37.209Z,5.73
2018-08-24T23:57:06.186Z,4.90
2018-08-24T23:59:34.861Z,4.60
